<?xml version="1.0" encoding="UTF-8" standalone="no" ?>
<gpx xmlns="http://www.topografix.com/GPX/1/1" xmlns:xsi="http://www.w3.org/2001/XMLSchema-instance" xsi:schemaLocation="http://www.topografix.com/GPX/1/1 http://www.topografix.com/GPX/1/1/gpx.xsd" version="1.1" creator="VisuGPX - https://www.visugpx.com">
  <metadata>
    <name>Gourgas - Chapelle Saint Vincent</name>
    <desc><![CDATA[2017-10 - Gourgas - Cirque du Bout du Monde

[b]album[/b] : [url]https://photos.app.goo.gl/ArEsYVB6O3QW5TVn2[/url]
[img]https://1.bp.blogspot.com/-aXzRJmTJNLY/WNQowjXAdTI/AAAAAAAARSc/Dyp3oHGrih4lSiMDwfW9AF3fvWTTZNLDQCLcB/s1600/2015-05_Gourgas_cirque_bout-monde_photos_i.JPG[/img]
[b]Idées de randonnées dans la même région[/b]
Parcours : [url]https://www.visugpx.com/membres/24856/causses/larzac/[/url]
Photos : [url]https://jcvertygo.blogspot.com/p/larzac.html[/url]]]></desc>
  </metadata>
  <trk>
    <name><![CDATA[2017-10-29_14h49m52_cirque bout monde]]></name>
    <extensions>
      <line xmlns="http://www.topografix.com/GPX/gpx_style/0/2">
        <color>0000FF</color>
        <width>4</width>
      </line>
    </extensions>
    <trkseg>
      <trkpt lat="43.77542" lon="3.40007">
        <ele>364.9</ele>
        <time>2017-10-29T10:59:24Z</time>
      </trkpt>
      <trkpt lat="43.7753" lon="3.40005">
        <ele>364.98068943106</ele>
        <time>2017-10-29T10:59:29Z</time>
      </trkpt>
      <trkpt lat="43.77529" lon="3.40015">
        <ele>364.98068943106</ele>
        <time>2017-10-29T11:00:00Z</time>
      </trkpt>
      <trkpt lat="43.77534" lon="3.3999">
        <ele>366.90772535812</ele>
        <time>2017-10-29T11:00:29Z</time>
      </trkpt>
      <trkpt lat="43.77538" lon="3.39951">
        <ele>368.84859725902</ele>
        <time>2017-10-29T11:00:58Z</time>
      </trkpt>
      <trkpt lat="43.77533" lon="3.39934">
        <ele>370.75880895985</ele>
        <time>2017-10-29T11:01:27Z</time>
      </trkpt>
      <trkpt lat="43.77538" lon="3.39934">
        <ele>370.75880895985</ele>
        <time>2017-10-29T11:02:10Z</time>
      </trkpt>
      <trkpt lat="43.77556" lon="3.39909">
        <ele>372.67674834388</ele>
        <time>2017-10-29T11:02:59Z</time>
      </trkpt>
      <trkpt lat="43.77572" lon="3.39862">
        <ele>374.57367749815</ele>
        <time>2017-10-29T11:03:31Z</time>
      </trkpt>
      <trkpt lat="43.77564" lon="3.39826">
        <ele>376.31789646461</ele>
        <time>2017-10-29T11:03:58Z</time>
      </trkpt>
      <trkpt lat="43.77559" lon="3.39814">
        <ele>377.76613106751</ele>
        <time>2017-10-29T11:03:59Z</time>
      </trkpt>
      <trkpt lat="43.77561" lon="3.39782">
        <ele>378.90789297633</ele>
        <time>2017-10-29T11:04:27Z</time>
      </trkpt>
      <trkpt lat="43.77568" lon="3.39776">
        <ele>378.90789297633</ele>
        <time>2017-10-29T11:04:27Z</time>
      </trkpt>
      <trkpt lat="43.77589" lon="3.39755">
        <ele>379.89369085172</ele>
        <time>2017-10-29T11:04:48Z</time>
      </trkpt>
      <trkpt lat="43.77589" lon="3.39753">
        <ele>379.89369085172</ele>
        <time>2017-10-29T11:04:50Z</time>
      </trkpt>
      <trkpt lat="43.77589" lon="3.39719">
        <ele>380.79222671745</ele>
        <time>2017-10-29T11:05:12Z</time>
      </trkpt>
      <trkpt lat="43.77589" lon="3.39706">
        <ele>380.79222671745</ele>
        <time>2017-10-29T11:05:25Z</time>
      </trkpt>
      <trkpt lat="43.77596" lon="3.39602">
        <ele>382.3321529906</ele>
        <time>2017-10-29T11:06:24Z</time>
      </trkpt>
      <trkpt lat="43.77599" lon="3.39543">
        <ele>384.15332923828</ele>
        <time>2017-10-29T11:06:59Z</time>
      </trkpt>
      <trkpt lat="43.77598" lon="3.39535">
        <ele>384.15332923828</ele>
        <time>2017-10-29T11:07:04Z</time>
      </trkpt>
      <trkpt lat="43.77585" lon="3.39484">
        <ele>386.12347011562</ele>
        <time>2017-10-29T11:07:36Z</time>
      </trkpt>
      <trkpt lat="43.77676" lon="3.39576">
        <ele>390.87552253256</ele>
        <time>2017-10-29T11:10:59Z</time>
      </trkpt>
      <trkpt lat="43.77679" lon="3.39582">
        <ele>390.87552253256</ele>
        <time>2017-10-29T11:11:04Z</time>
      </trkpt>
      <trkpt lat="43.77684" lon="3.39594">
        <ele>395.30253894804</ele>
        <time>2017-10-29T11:11:16Z</time>
      </trkpt>
      <trkpt lat="43.77687" lon="3.39597">
        <ele>395.30253894804</ele>
        <time>2017-10-29T11:11:34Z</time>
      </trkpt>
      <trkpt lat="43.77695" lon="3.39632">
        <ele>399.64975967592</ele>
        <time>2017-10-29T11:12:02Z</time>
      </trkpt>
      <trkpt lat="43.77695" lon="3.39633">
        <ele>399.64975967592</ele>
        <time>2017-10-29T11:12:02Z</time>
      </trkpt>
      <trkpt lat="43.77727" lon="3.39671">
        <ele>403.89725365535</ele>
        <time>2017-10-29T11:13:03Z</time>
      </trkpt>
      <trkpt lat="43.7773" lon="3.39581">
        <ele>408.20636527112</ele>
        <time>2017-10-29T11:14:18Z</time>
      </trkpt>
      <trkpt lat="43.7775" lon="3.39563">
        <ele>412.4530952112</ele>
        <time>2017-10-29T11:14:40Z</time>
      </trkpt>
      <trkpt lat="43.77767" lon="3.39544">
        <ele>416.62392418752</ele>
        <time>2017-10-29T11:14:56Z</time>
      </trkpt>
      <trkpt lat="43.77802" lon="3.39496">
        <ele>420.79990260877</ele>
        <time>2017-10-29T11:15:34Z</time>
      </trkpt>
      <trkpt lat="43.77812" lon="3.39457">
        <ele>424.7078003084</ele>
        <time>2017-10-29T11:16:04Z</time>
      </trkpt>
      <trkpt lat="43.77814" lon="3.39448">
        <ele>424.7078003084</ele>
        <time>2017-10-29T11:16:06Z</time>
      </trkpt>
      <trkpt lat="43.77814" lon="3.3937">
        <ele>428.8926532025</ele>
        <time>2017-10-29T11:16:56Z</time>
      </trkpt>
      <trkpt lat="43.77813" lon="3.39358">
        <ele>428.8926532025</ele>
        <time>2017-10-29T11:16:56Z</time>
      </trkpt>
      <trkpt lat="43.77813" lon="3.39328">
        <ele>432.89972956578</ele>
        <time>2017-10-29T11:17:22Z</time>
      </trkpt>
      <trkpt lat="43.77818" lon="3.39313">
        <ele>436.53011327378</ele>
        <time>2017-10-29T11:17:22Z</time>
      </trkpt>
      <trkpt lat="43.77814" lon="3.3927">
        <ele>440.04827306546</ele>
        <time>2017-10-29T11:17:55Z</time>
      </trkpt>
      <trkpt lat="43.77811" lon="3.3926">
        <ele>440.04827306546</ele>
        <time>2017-10-29T11:17:55Z</time>
      </trkpt>
      <trkpt lat="43.77815" lon="3.39226">
        <ele>443.63273836688</ele>
        <time>2017-10-29T11:18:21Z</time>
      </trkpt>
      <trkpt lat="43.77824" lon="3.39205">
        <ele>446.68680124971</ele>
        <time>2017-10-29T11:18:45Z</time>
      </trkpt>
      <trkpt lat="43.77829" lon="3.39195">
        <ele>449.22657963989</ele>
        <time>2017-10-29T11:18:45Z</time>
      </trkpt>
      <trkpt lat="43.77873" lon="3.39145">
        <ele>451.50046297395</ele>
        <time>2017-10-29T11:19:33Z</time>
      </trkpt>
      <trkpt lat="43.77873" lon="3.39145">
        <ele>451.50046297395</ele>
        <time>2017-10-29T11:19:34Z</time>
      </trkpt>
      <trkpt lat="43.77853" lon="3.3906">
        <ele>453.66564786999</ele>
        <time>2017-10-29T11:21:35Z</time>
      </trkpt>
      <trkpt lat="43.77858" lon="3.39064">
        <ele>453.66564786999</ele>
        <time>2017-10-29T11:21:35Z</time>
      </trkpt>
      <trkpt lat="43.77859" lon="3.39065">
        <ele>453.66564786999</ele>
        <time>2017-10-29T11:21:36Z</time>
      </trkpt>
      <trkpt lat="43.77877" lon="3.39076">
        <ele>455.54793716729</ele>
        <time>2017-10-29T11:22:00Z</time>
      </trkpt>
      <trkpt lat="43.7788" lon="3.39078">
        <ele>455.54793716729</ele>
        <time>2017-10-29T11:22:00Z</time>
      </trkpt>
      <trkpt lat="43.77889" lon="3.39084">
        <ele>457.11028299536</ele>
        <time>2017-10-29T11:22:20Z</time>
      </trkpt>
      <trkpt lat="43.77899" lon="3.39092">
        <ele>458.35987035129</ele>
        <time>2017-10-29T11:22:20Z</time>
      </trkpt>
      <trkpt lat="43.77926" lon="3.39111">
        <ele>459.34596842109</ele>
        <time>2017-10-29T11:22:55Z</time>
      </trkpt>
      <trkpt lat="43.77943" lon="3.39133">
        <ele>460.98975259821</ele>
        <time>2017-10-29T11:23:39Z</time>
      </trkpt>
      <trkpt lat="43.77948" lon="3.39155">
        <ele>462.88781517888</ele>
        <time>2017-10-29T11:24:01Z</time>
      </trkpt>
      <trkpt lat="43.77948" lon="3.39161">
        <ele>462.88781517888</ele>
        <time>2017-10-29T11:24:02Z</time>
      </trkpt>
      <trkpt lat="43.77951" lon="3.3919">
        <ele>464.94342438905</ele>
        <time>2017-10-29T11:24:31Z</time>
      </trkpt>
      <trkpt lat="43.7795" lon="3.39199">
        <ele>464.94342438905</ele>
        <time>2017-10-29T11:24:31Z</time>
      </trkpt>
      <trkpt lat="43.77908" lon="3.39272">
        <ele>468.77518324093</ele>
        <time>2017-10-29T11:26:32Z</time>
      </trkpt>
      <trkpt lat="43.77911" lon="3.39275">
        <ele>468.77518324093</ele>
        <time>2017-10-29T11:26:32Z</time>
      </trkpt>
      <trkpt lat="43.77901" lon="3.39289">
        <ele>472.93425767975</ele>
        <time>2017-10-29T11:27:00Z</time>
      </trkpt>
      <trkpt lat="43.77899" lon="3.39294">
        <ele>472.93425767975</ele>
        <time>2017-10-29T11:27:04Z</time>
      </trkpt>
      <trkpt lat="43.77897" lon="3.39303">
        <ele>477.01857110259</ele>
        <time>2017-10-29T11:27:14Z</time>
      </trkpt>
      <trkpt lat="43.77894" lon="3.3931">
        <ele>477.01857110259</ele>
        <time>2017-10-29T11:27:19Z</time>
      </trkpt>
      <trkpt lat="43.77895" lon="3.39319">
        <ele>480.93987572187</ele>
        <time>2017-10-29T11:27:34Z</time>
      </trkpt>
      <trkpt lat="43.77906" lon="3.39326">
        <ele>484.57110200831</ele>
        <time>2017-10-29T11:27:39Z</time>
      </trkpt>
      <trkpt lat="43.77913" lon="3.39325">
        <ele>484.57110200831</ele>
        <time>2017-10-29T11:27:49Z</time>
      </trkpt>
      <trkpt lat="43.77914" lon="3.39326">
        <ele>484.57110200831</ele>
        <time>2017-10-29T11:27:54Z</time>
      </trkpt>
      <trkpt lat="43.77965" lon="3.39353">
        <ele>489.2025973022</ele>
        <time>2017-10-29T11:29:25Z</time>
      </trkpt>
      <trkpt lat="43.7797" lon="3.39358">
        <ele>489.2025973022</ele>
        <time>2017-10-29T11:29:25Z</time>
      </trkpt>
      <trkpt lat="43.77949" lon="3.39386">
        <ele>495.10675716661</ele>
        <time>2017-10-29T11:30:57Z</time>
      </trkpt>
      <trkpt lat="43.77969" lon="3.39404">
        <ele>500.94632951857</ele>
        <time>2017-10-29T11:31:28Z</time>
      </trkpt>
      <trkpt lat="43.77969" lon="3.39404">
        <ele>500.94632951857</ele>
        <time>2017-10-29T11:31:29Z</time>
      </trkpt>
      <trkpt lat="43.77976" lon="3.39428">
        <ele>507.1934739248</ele>
        <time>2017-10-29T11:32:31Z</time>
      </trkpt>
      <trkpt lat="43.77975" lon="3.39434">
        <ele>507.1934739248</ele>
        <time>2017-10-29T11:32:39Z</time>
      </trkpt>
      <trkpt lat="43.77991" lon="3.39478">
        <ele>514.10726537627</ele>
        <time>2017-10-29T11:34:05Z</time>
      </trkpt>
      <trkpt lat="43.77989" lon="3.39485">
        <ele>514.10726537627</ele>
        <time>2017-10-29T11:34:08Z</time>
      </trkpt>
      <trkpt lat="43.77989" lon="3.39499">
        <ele>521.88064449226</ele>
        <time>2017-10-29T11:34:24Z</time>
      </trkpt>
      <trkpt lat="43.77989" lon="3.39502">
        <ele>521.88064449226</ele>
        <time>2017-10-29T11:34:29Z</time>
      </trkpt>
      <trkpt lat="43.77986" lon="3.39545">
        <ele>529.9342785159</ele>
        <time>2017-10-29T11:35:11Z</time>
      </trkpt>
      <trkpt lat="43.77989" lon="3.39547">
        <ele>529.9342785159</ele>
        <time>2017-10-29T11:35:11Z</time>
      </trkpt>
      <trkpt lat="43.77996" lon="3.39558">
        <ele>537.80569666644</ele>
        <time>2017-10-29T11:35:27Z</time>
      </trkpt>
      <trkpt lat="43.77997" lon="3.39559">
        <ele>537.80569666644</ele>
        <time>2017-10-29T11:35:29Z</time>
      </trkpt>
      <trkpt lat="43.78028" lon="3.39608">
        <ele>547.98271156917</ele>
        <time>2017-10-29T11:37:06Z</time>
      </trkpt>
      <trkpt lat="43.78038" lon="3.39627">
        <ele>558.22508218644</ele>
        <time>2017-10-29T11:37:42Z</time>
      </trkpt>
      <trkpt lat="43.78042" lon="3.39629">
        <ele>558.22508218644</ele>
        <time>2017-10-29T11:37:42Z</time>
      </trkpt>
      <trkpt lat="43.7806" lon="3.39639">
        <ele>568.15736688403</ele>
        <time>2017-10-29T11:38:17Z</time>
      </trkpt>
      <trkpt lat="43.78076" lon="3.39655">
        <ele>577.4670840782</ele>
        <time>2017-10-29T11:38:42Z</time>
      </trkpt>
      <trkpt lat="43.78078" lon="3.39659">
        <ele>577.4670840782</ele>
        <time>2017-10-29T11:38:42Z</time>
      </trkpt>
      <trkpt lat="43.78082" lon="3.39663">
        <ele>577.4670840782</ele>
        <time>2017-10-29T11:38:59Z</time>
      </trkpt>
      <trkpt lat="43.78085" lon="3.39673">
        <ele>586.83279905744</ele>
        <time>2017-10-29T11:38:59Z</time>
      </trkpt>
      <trkpt lat="43.78084" lon="3.39712">
        <ele>596.18824146774</ele>
        <time>2017-10-29T11:39:29Z</time>
      </trkpt>
      <trkpt lat="43.78136" lon="3.3971">
        <ele>609.02025796264</ele>
        <time>2017-10-29T11:41:19Z</time>
      </trkpt>
      <trkpt lat="43.7814" lon="3.39713">
        <ele>609.02025796264</ele>
        <time>2017-10-29T11:41:24Z</time>
      </trkpt>
      <trkpt lat="43.78149" lon="3.39719">
        <ele>620.37593312252</ele>
        <time>2017-10-29T11:41:29Z</time>
      </trkpt>
      <trkpt lat="43.78155" lon="3.39726">
        <ele>620.37593312252</ele>
        <time>2017-10-29T11:41:35Z</time>
      </trkpt>
      <trkpt lat="43.78158" lon="3.39728">
        <ele>630.51992066982</ele>
        <time>2017-10-29T11:41:39Z</time>
      </trkpt>
      <trkpt lat="43.78163" lon="3.39732">
        <ele>630.51992066982</ele>
        <time>2017-10-29T11:41:44Z</time>
      </trkpt>
      <trkpt lat="43.78174" lon="3.39737">
        <ele>639.40212298594</ele>
        <time>2017-10-29T11:41:54Z</time>
      </trkpt>
      <trkpt lat="43.7818" lon="3.39739">
        <ele>639.40212298594</ele>
        <time>2017-10-29T11:41:59Z</time>
      </trkpt>
      <trkpt lat="43.78192" lon="3.39747">
        <ele>647.14401035486</ele>
        <time>2017-10-29T11:42:11Z</time>
      </trkpt>
      <trkpt lat="43.78193" lon="3.39747">
        <ele>647.14401035486</ele>
        <time>2017-10-29T11:42:19Z</time>
      </trkpt>
      <trkpt lat="43.78234" lon="3.39758">
        <ele>654.02305252174</ele>
        <time>2017-10-29T11:42:49Z</time>
      </trkpt>
      <trkpt lat="43.78236" lon="3.39758">
        <ele>654.02305252174</ele>
        <time>2017-10-29T11:42:57Z</time>
      </trkpt>
      <trkpt lat="43.78269" lon="3.3975">
        <ele>660.34027670714</ele>
        <time>2017-10-29T11:43:23Z</time>
      </trkpt>
      <trkpt lat="43.78281" lon="3.39748">
        <ele>665.63763798756</ele>
        <time>2017-10-29T11:43:23Z</time>
      </trkpt>
      <trkpt lat="43.7831" lon="3.39732">
        <ele>670.34919651957</ele>
        <time>2017-10-29T11:43:56Z</time>
      </trkpt>
      <trkpt lat="43.78353" lon="3.39718">
        <ele>674.21557302045</ele>
        <time>2017-10-29T11:44:37Z</time>
      </trkpt>
      <trkpt lat="43.78361" lon="3.39717">
        <ele>674.21557302045</ele>
        <time>2017-10-29T11:44:38Z</time>
      </trkpt>
      <trkpt lat="43.78363" lon="3.3972">
        <ele>677.36621543433</ele>
        <time>2017-10-29T11:44:38Z</time>
      </trkpt>
      <trkpt lat="43.78374" lon="3.39724">
        <ele>679.81965175216</ele>
        <time>2017-10-29T11:44:55Z</time>
      </trkpt>
      <trkpt lat="43.78411" lon="3.39711">
        <ele>681.60918470117</ele>
        <time>2017-10-29T11:45:20Z</time>
      </trkpt>
      <trkpt lat="43.78422" lon="3.39706">
        <ele>682.75253312032</ele>
        <time>2017-10-29T11:45:20Z</time>
      </trkpt>
      <trkpt lat="43.78429" lon="3.39696">
        <ele>683.23855602813</ele>
        <time>2017-10-29T11:45:33Z</time>
      </trkpt>
      <trkpt lat="43.78456" lon="3.39664">
        <ele>681.89832330138</ele>
        <time>2017-10-29T11:45:53Z</time>
      </trkpt>
      <trkpt lat="43.78524" lon="3.39592">
        <ele>679.73035734086</ele>
        <time>2017-10-29T11:47:22Z</time>
      </trkpt>
      <trkpt lat="43.78542" lon="3.39572">
        <ele>676.48515535619</ele>
        <time>2017-10-29T11:47:22Z</time>
      </trkpt>
      <trkpt lat="43.78554" lon="3.39564">
        <ele>673.03411753495</ele>
        <time>2017-10-29T11:47:39Z</time>
      </trkpt>
      <trkpt lat="43.7858" lon="3.39543">
        <ele>668.82403159194</ele>
        <time>2017-10-29T11:47:56Z</time>
      </trkpt>
      <trkpt lat="43.7862" lon="3.39487">
        <ele>663.85117780298</ele>
        <time>2017-10-29T11:48:46Z</time>
      </trkpt>
      <trkpt lat="43.78628" lon="3.39474">
        <ele>658.76354684423</ele>
        <time>2017-10-29T11:48:46Z</time>
      </trkpt>
      <trkpt lat="43.78636" lon="3.39465">
        <ele>653.69880542855</ele>
        <time>2017-10-29T11:49:00Z</time>
      </trkpt>
      <trkpt lat="43.78677" lon="3.39445">
        <ele>649.5775688647</ele>
        <time>2017-10-29T11:49:33Z</time>
      </trkpt>
      <trkpt lat="43.7868" lon="3.39445">
        <ele>649.5775688647</ele>
        <time>2017-10-29T11:49:33Z</time>
      </trkpt>
      <trkpt lat="43.78687" lon="3.39444">
        <ele>645.99445867471</ele>
        <time>2017-10-29T11:49:40Z</time>
      </trkpt>
      <trkpt lat="43.78698" lon="3.39436">
        <ele>642.84658629583</ele>
        <time>2017-10-29T11:49:54Z</time>
      </trkpt>
      <trkpt lat="43.78737" lon="3.39428">
        <ele>639.84975812492</ele>
        <time>2017-10-29T11:50:48Z</time>
      </trkpt>
      <trkpt lat="43.78771" lon="3.39421">
        <ele>638.13848754159</ele>
        <time>2017-10-29T11:51:24Z</time>
      </trkpt>
      <trkpt lat="43.78783" lon="3.3941">
        <ele>636.55385372027</ele>
        <time>2017-10-29T11:51:42Z</time>
      </trkpt>
      <trkpt lat="43.78786" lon="3.39348">
        <ele>634.8431652865</ele>
        <time>2017-10-29T11:52:22Z</time>
      </trkpt>
      <trkpt lat="43.78787" lon="3.39338">
        <ele>634.8431652865</ele>
        <time>2017-10-29T11:52:22Z</time>
      </trkpt>
      <trkpt lat="43.78797" lon="3.39317">
        <ele>633.49298027332</ele>
        <time>2017-10-29T11:52:42Z</time>
      </trkpt>
      <trkpt lat="43.78857" lon="3.39141">
        <ele>633.65908185887</ele>
        <time>2017-10-29T11:54:50Z</time>
      </trkpt>
      <trkpt lat="43.78858" lon="3.39137">
        <ele>633.65908185887</ele>
        <time>2017-10-29T11:55:00Z</time>
      </trkpt>
      <trkpt lat="43.78859" lon="3.39077">
        <ele>634.20150764744</ele>
        <time>2017-10-29T11:55:24Z</time>
      </trkpt>
      <trkpt lat="43.78853" lon="3.39047">
        <ele>634.74000555778</ele>
        <time>2017-10-29T11:55:49Z</time>
      </trkpt>
      <trkpt lat="43.78852" lon="3.39032">
        <ele>635.22448032908</ele>
        <time>2017-10-29T11:55:49Z</time>
      </trkpt>
      <trkpt lat="43.78837" lon="3.38982">
        <ele>635.43504482665</ele>
        <time>2017-10-29T11:56:49Z</time>
      </trkpt>
      <trkpt lat="43.78824" lon="3.38986">
        <ele>635.06721921672</ele>
        <time>2017-10-29T11:57:00Z</time>
      </trkpt>
      <trkpt lat="43.78845" lon="3.38972">
        <ele>634.01306277467</ele>
        <time>2017-10-29T11:58:11Z</time>
      </trkpt>
      <trkpt lat="43.7885" lon="3.38965">
        <ele>634.01306277467</ele>
        <time>2017-10-29T11:58:11Z</time>
      </trkpt>
      <trkpt lat="43.78867" lon="3.3893">
        <ele>632.82307728664</ele>
        <time>2017-10-29T11:59:22Z</time>
      </trkpt>
      <trkpt lat="43.78867" lon="3.3893">
        <ele>632.82307728664</ele>
        <time>2017-10-29T11:59:27Z</time>
      </trkpt>
      <trkpt lat="43.78867" lon="3.3893">
        <ele>632.82307728664</ele>
        <time>2017-10-29T11:59:37Z</time>
      </trkpt>
      <trkpt lat="43.78865" lon="3.38928">
        <ele>632.82307728664</ele>
        <time>2017-10-29T12:00:02Z</time>
      </trkpt>
      <trkpt lat="43.78864" lon="3.38929">
        <ele>632.82307728664</ele>
        <time>2017-10-29T12:00:04Z</time>
      </trkpt>
      <trkpt lat="43.78862" lon="3.3893">
        <ele>632.82307728664</ele>
        <time>2017-10-29T12:00:09Z</time>
      </trkpt>
      <trkpt lat="43.78857" lon="3.38914">
        <ele>631.97841085999</ele>
        <time>2017-10-29T12:00:19Z</time>
      </trkpt>
      <trkpt lat="43.78861" lon="3.38905">
        <ele>631.97841085999</ele>
        <time>2017-10-29T12:00:24Z</time>
      </trkpt>
      <trkpt lat="43.78867" lon="3.38919">
        <ele>630.91371617058</ele>
        <time>2017-10-29T12:00:35Z</time>
      </trkpt>
      <trkpt lat="43.78865" lon="3.38927">
        <ele>630.91371617058</ele>
        <time>2017-10-29T12:00:39Z</time>
      </trkpt>
      <trkpt lat="43.78867" lon="3.38933">
        <ele>629.78328753584</ele>
        <time>2017-10-29T12:00:49Z</time>
      </trkpt>
      <trkpt lat="43.78869" lon="3.38929">
        <ele>629.78328753584</ele>
        <time>2017-10-29T12:01:04Z</time>
      </trkpt>
      <trkpt lat="43.7887" lon="3.38929">
        <ele>629.78328753584</ele>
        <time>2017-10-29T12:01:09Z</time>
      </trkpt>
      <trkpt lat="43.78869" lon="3.38929">
        <ele>629.78328753584</ele>
        <time>2017-10-29T12:01:32Z</time>
      </trkpt>
      <trkpt lat="43.78868" lon="3.38929">
        <ele>629.78328753584</ele>
        <time>2017-10-29T12:01:32Z</time>
      </trkpt>
      <trkpt lat="43.7886" lon="3.38926">
        <ele>629.30678586336</ele>
        <time>2017-10-29T12:03:54Z</time>
      </trkpt>
      <trkpt lat="43.78854" lon="3.38928">
        <ele>629.30678586336</ele>
        <time>2017-10-29T12:04:04Z</time>
      </trkpt>
      <trkpt lat="43.78847" lon="3.38914">
        <ele>628.86490121348</ele>
        <time>2017-10-29T12:04:27Z</time>
      </trkpt>
      <trkpt lat="43.78846" lon="3.38904">
        <ele>628.86490121348</ele>
        <time>2017-10-29T12:04:27Z</time>
      </trkpt>
      <trkpt lat="43.78841" lon="3.38853">
        <ele>628.61897607016</ele>
        <time>2017-10-29T12:05:06Z</time>
      </trkpt>
      <trkpt lat="43.78844" lon="3.38844">
        <ele>628.61897607016</ele>
        <time>2017-10-29T12:05:06Z</time>
      </trkpt>
      <trkpt lat="43.78852" lon="3.38822">
        <ele>628.44347243588</ele>
        <time>2017-10-29T12:05:19Z</time>
      </trkpt>
      <trkpt lat="43.78848" lon="3.38765">
        <ele>628.5532354038</ele>
        <time>2017-10-29T12:06:01Z</time>
      </trkpt>
      <trkpt lat="43.78845" lon="3.38725">
        <ele>628.82882497941</ele>
        <time>2017-10-29T12:06:19Z</time>
      </trkpt>
      <trkpt lat="43.78813" lon="3.38623">
        <ele>629.20204982644</ele>
        <time>2017-10-29T12:07:24Z</time>
      </trkpt>
      <trkpt lat="43.78815" lon="3.38568">
        <ele>629.73893249489</ele>
        <time>2017-10-29T12:08:03Z</time>
      </trkpt>
      <trkpt lat="43.78823" lon="3.38567">
        <ele>629.73893249489</ele>
        <time>2017-10-29T12:08:50Z</time>
      </trkpt>
      <trkpt lat="43.78825" lon="3.38571">
        <ele>630.25472435538</ele>
        <time>2017-10-29T12:08:50Z</time>
      </trkpt>
      <trkpt lat="43.78826" lon="3.38572">
        <ele>630.25472435538</ele>
        <time>2017-10-29T12:08:51Z</time>
      </trkpt>
      <trkpt lat="43.7884" lon="3.38582">
        <ele>630.6934240461</ele>
        <time>2017-10-29T12:09:27Z</time>
      </trkpt>
      <trkpt lat="43.78855" lon="3.38566">
        <ele>631.13288230387</ele>
        <time>2017-10-29T12:09:27Z</time>
      </trkpt>
      <trkpt lat="43.78869" lon="3.38535">
        <ele>631.60171767507</ele>
        <time>2017-10-29T12:09:48Z</time>
      </trkpt>
      <trkpt lat="43.78878" lon="3.38511">
        <ele>632.12613667821</ele>
        <time>2017-10-29T12:10:13Z</time>
      </trkpt>
      <trkpt lat="43.78884" lon="3.38479">
        <ele>632.78772332661</ele>
        <time>2017-10-29T12:10:38Z</time>
      </trkpt>
      <trkpt lat="43.78901" lon="3.38448">
        <ele>633.51732411873</ele>
        <time>2017-10-29T12:11:01Z</time>
      </trkpt>
      <trkpt lat="43.78918" lon="3.38414">
        <ele>634.09195155553</ele>
        <time>2017-10-29T12:11:37Z</time>
      </trkpt>
      <trkpt lat="43.78924" lon="3.3838">
        <ele>634.49271067007</ele>
        <time>2017-10-29T12:11:48Z</time>
      </trkpt>
      <trkpt lat="43.78943" lon="3.38279">
        <ele>634.64478942106</ele>
        <time>2017-10-29T12:12:53Z</time>
      </trkpt>
      <trkpt lat="43.78944" lon="3.38265">
        <ele>634.56593551343</ele>
        <time>2017-10-29T12:12:53Z</time>
      </trkpt>
      <trkpt lat="43.78944" lon="3.38264">
        <ele>634.56593551343</ele>
        <time>2017-10-29T12:12:54Z</time>
      </trkpt>
      <trkpt lat="43.78945" lon="3.38174">
        <ele>634.05692219004</ele>
        <time>2017-10-29T12:13:52Z</time>
      </trkpt>
      <trkpt lat="43.78945" lon="3.38158">
        <ele>633.61168514747</ele>
        <time>2017-10-29T12:13:52Z</time>
      </trkpt>
      <trkpt lat="43.78948" lon="3.38116">
        <ele>633.22634560957</ele>
        <time>2017-10-29T12:14:17Z</time>
      </trkpt>
      <trkpt lat="43.78951" lon="3.38047">
        <ele>633.40148260372</ele>
        <time>2017-10-29T12:15:08Z</time>
      </trkpt>
      <trkpt lat="43.78948" lon="3.38011">
        <ele>634.39744720119</ele>
        <time>2017-10-29T12:15:42Z</time>
      </trkpt>
      <trkpt lat="43.78947" lon="3.37991">
        <ele>635.70366716749</ele>
        <time>2017-10-29T12:15:56Z</time>
      </trkpt>
      <trkpt lat="43.78949" lon="3.37984">
        <ele>635.70366716749</ele>
        <time>2017-10-29T12:15:59Z</time>
      </trkpt>
      <trkpt lat="43.78952" lon="3.37976">
        <ele>637.24970606867</ele>
        <time>2017-10-29T12:16:07Z</time>
      </trkpt>
      <trkpt lat="43.78953" lon="3.37973">
        <ele>637.24970606867</ele>
        <time>2017-10-29T12:16:09Z</time>
      </trkpt>
      <trkpt lat="43.78955" lon="3.37968">
        <ele>637.24970606867</ele>
        <time>2017-10-29T12:16:14Z</time>
      </trkpt>
      <trkpt lat="43.78955" lon="3.37945">
        <ele>639.09929577731</ele>
        <time>2017-10-29T12:16:57Z</time>
      </trkpt>
      <trkpt lat="43.78956" lon="3.37901">
        <ele>640.80621038942</ele>
        <time>2017-10-29T12:42:35Z</time>
      </trkpt>
      <trkpt lat="43.78962" lon="3.37892">
        <ele>640.80621038942</ele>
        <time>2017-10-29T12:43:00Z</time>
      </trkpt>
      <trkpt lat="43.78962" lon="3.37887">
        <ele>642.69238806386</ele>
        <time>2017-10-29T12:43:04Z</time>
      </trkpt>
      <trkpt lat="43.78954" lon="3.378">
        <ele>644.3494663879</ele>
        <time>2017-10-29T12:44:14Z</time>
      </trkpt>
      <trkpt lat="43.7895" lon="3.37786">
        <ele>646.00502962329</ele>
        <time>2017-10-29T12:44:14Z</time>
      </trkpt>
      <trkpt lat="43.78945" lon="3.37764">
        <ele>647.61058577732</ele>
        <time>2017-10-29T12:44:29Z</time>
      </trkpt>
      <trkpt lat="43.78944" lon="3.37754">
        <ele>647.61058577732</ele>
        <time>2017-10-29T12:44:34Z</time>
      </trkpt>
      <trkpt lat="43.78938" lon="3.37745">
        <ele>649.04934475613</ele>
        <time>2017-10-29T12:44:41Z</time>
      </trkpt>
      <trkpt lat="43.78926" lon="3.37659">
        <ele>650.41538775185</ele>
        <time>2017-10-29T12:45:43Z</time>
      </trkpt>
      <trkpt lat="43.78913" lon="3.37635">
        <ele>651.50793888717</ele>
        <time>2017-10-29T12:46:08Z</time>
      </trkpt>
      <trkpt lat="43.78913" lon="3.37634">
        <ele>651.50793888717</ele>
        <time>2017-10-29T12:46:09Z</time>
      </trkpt>
      <trkpt lat="43.78874" lon="3.37542">
        <ele>652.84797426958</ele>
        <time>2017-10-29T12:48:34Z</time>
      </trkpt>
      <trkpt lat="43.78878" lon="3.37515">
        <ele>654.08174005229</ele>
        <time>2017-10-29T12:48:49Z</time>
      </trkpt>
      <trkpt lat="43.78872" lon="3.375">
        <ele>655.21332037708</ele>
        <time>2017-10-29T12:49:13Z</time>
      </trkpt>
      <trkpt lat="43.78865" lon="3.37497">
        <ele>655.21332037708</ele>
        <time>2017-10-29T12:49:25Z</time>
      </trkpt>
      <trkpt lat="43.78866" lon="3.37495">
        <ele>655.21332037708</ele>
        <time>2017-10-29T12:50:00Z</time>
      </trkpt>
      <trkpt lat="43.78852" lon="3.37489">
        <ele>656.63599148829</ele>
        <time>2017-10-29T12:50:00Z</time>
      </trkpt>
      <trkpt lat="43.78845" lon="3.37484">
        <ele>656.63599148829</ele>
        <time>2017-10-29T12:50:19Z</time>
      </trkpt>
      <trkpt lat="43.78832" lon="3.37464">
        <ele>658.90077700929</ele>
        <time>2017-10-29T12:51:24Z</time>
      </trkpt>
      <trkpt lat="43.78821" lon="3.37457">
        <ele>661.93951662551</ele>
        <time>2017-10-29T12:51:50Z</time>
      </trkpt>
      <trkpt lat="43.78822" lon="3.37458">
        <ele>661.93951662551</ele>
        <time>2017-10-29T12:52:10Z</time>
      </trkpt>
      <trkpt lat="43.78808" lon="3.37437">
        <ele>665.05290256083</ele>
        <time>2017-10-29T12:52:49Z</time>
      </trkpt>
      <trkpt lat="43.78793" lon="3.3725">
        <ele>666.56970350482</ele>
        <time>2017-10-29T12:54:48Z</time>
      </trkpt>
      <trkpt lat="43.78793" lon="3.37234">
        <ele>667.74189777964</ele>
        <time>2017-10-29T12:54:49Z</time>
      </trkpt>
      <trkpt lat="43.7879" lon="3.37218">
        <ele>668.62092357438</ele>
        <time>2017-10-29T12:55:00Z</time>
      </trkpt>
      <trkpt lat="43.78791" lon="3.37185">
        <ele>669.1689376951</ele>
        <time>2017-10-29T12:55:21Z</time>
      </trkpt>
      <trkpt lat="43.78705" lon="3.37098">
        <ele>669.1645936891</ele>
        <time>2017-10-29T12:56:45Z</time>
      </trkpt>
      <trkpt lat="43.78689" lon="3.37087">
        <ele>669.2403500425</ele>
        <time>2017-10-29T12:56:45Z</time>
      </trkpt>
      <trkpt lat="43.78685" lon="3.37084">
        <ele>669.2403500425</ele>
        <time>2017-10-29T12:56:49Z</time>
      </trkpt>
      <trkpt lat="43.78665" lon="3.37073">
        <ele>669.42004974193</ele>
        <time>2017-10-29T12:57:02Z</time>
      </trkpt>
      <trkpt lat="43.78649" lon="3.37035">
        <ele>668.44297753281</ele>
        <time>2017-10-29T12:58:08Z</time>
      </trkpt>
      <trkpt lat="43.78599" lon="3.37026">
        <ele>667.08991708839</ele>
        <time>2017-10-29T12:58:52Z</time>
      </trkpt>
      <trkpt lat="43.78589" lon="3.37034">
        <ele>665.13426559286</ele>
        <time>2017-10-29T12:58:52Z</time>
      </trkpt>
      <trkpt lat="43.78572" lon="3.37046">
        <ele>662.81456412799</ele>
        <time>2017-10-29T12:59:17Z</time>
      </trkpt>
      <trkpt lat="43.78471" lon="3.3704">
        <ele>657.02383937807</ele>
        <time>2017-10-29T13:00:44Z</time>
      </trkpt>
      <trkpt lat="43.78468" lon="3.3703">
        <ele>657.02383937807</ele>
        <time>2017-10-29T13:00:52Z</time>
      </trkpt>
      <trkpt lat="43.78467" lon="3.37054">
        <ele>651.08999246974</ele>
        <time>2017-10-29T13:01:09Z</time>
      </trkpt>
      <trkpt lat="43.78474" lon="3.37057">
        <ele>651.08999246974</ele>
        <time>2017-10-29T13:01:14Z</time>
      </trkpt>
      <trkpt lat="43.78484" lon="3.37062">
        <ele>645.22892625923</ele>
        <time>2017-10-29T13:01:29Z</time>
      </trkpt>
      <trkpt lat="43.78486" lon="3.37066">
        <ele>645.22892625923</ele>
        <time>2017-10-29T13:01:34Z</time>
      </trkpt>
      <trkpt lat="43.78495" lon="3.37076">
        <ele>639.53950039284</ele>
        <time>2017-10-29T13:01:46Z</time>
      </trkpt>
      <trkpt lat="43.78495" lon="3.37078">
        <ele>639.53950039284</ele>
        <time>2017-10-29T13:01:49Z</time>
      </trkpt>
      <trkpt lat="43.78495" lon="3.37078">
        <ele>639.53950039284</ele>
        <time>2017-10-29T13:01:54Z</time>
      </trkpt>
      <trkpt lat="43.78506" lon="3.37083">
        <ele>634.01180738879</ele>
        <time>2017-10-29T13:02:14Z</time>
      </trkpt>
      <trkpt lat="43.78491" lon="3.37102">
        <ele>628.40544841847</ele>
        <time>2017-10-29T13:03:17Z</time>
      </trkpt>
      <trkpt lat="43.78474" lon="3.37087">
        <ele>623.05972522644</ele>
        <time>2017-10-29T13:03:42Z</time>
      </trkpt>
      <trkpt lat="43.78464" lon="3.37084">
        <ele>618.07186026802</ele>
        <time>2017-10-29T13:03:42Z</time>
      </trkpt>
      <trkpt lat="43.78405" lon="3.3706">
        <ele>612.76685357982</ele>
        <time>2017-10-29T13:04:42Z</time>
      </trkpt>
      <trkpt lat="43.78397" lon="3.37058">
        <ele>612.76685357982</ele>
        <time>2017-10-29T13:04:44Z</time>
      </trkpt>
      <trkpt lat="43.78288" lon="3.37051">
        <ele>606.26047463285</ele>
        <time>2017-10-29T13:06:15Z</time>
      </trkpt>
      <trkpt lat="43.78239" lon="3.37042">
        <ele>600.17198634548</ele>
        <time>2017-10-29T13:07:01Z</time>
      </trkpt>
      <trkpt lat="43.78132" lon="3.37009">
        <ele>590.81213236976</ele>
        <time>2017-10-29T13:08:45Z</time>
      </trkpt>
      <trkpt lat="43.78052" lon="3.36965">
        <ele>579.61362123885</ele>
        <time>2017-10-29T13:10:15Z</time>
      </trkpt>
      <trkpt lat="43.78035" lon="3.36953">
        <ele>568.62919179668</ele>
        <time>2017-10-29T13:10:24Z</time>
      </trkpt>
      <trkpt lat="43.78027" lon="3.36948">
        <ele>568.62919179668</ele>
        <time>2017-10-29T13:10:24Z</time>
      </trkpt>
      <trkpt lat="43.7802" lon="3.36948">
        <ele>558.16006445057</ele>
        <time>2017-10-29T13:10:32Z</time>
      </trkpt>
      <trkpt lat="43.77988" lon="3.36935">
        <ele>547.83485781511</ele>
        <time>2017-10-29T13:11:03Z</time>
      </trkpt>
      <trkpt lat="43.77955" lon="3.36932">
        <ele>537.20762202866</ele>
        <time>2017-10-29T13:11:44Z</time>
      </trkpt>
      <trkpt lat="43.77954" lon="3.36932">
        <ele>537.20762202866</ele>
        <time>2017-10-29T13:11:44Z</time>
      </trkpt>
      <trkpt lat="43.77926" lon="3.36923">
        <ele>526.7877220434</ele>
        <time>2017-10-29T13:12:20Z</time>
      </trkpt>
      <trkpt lat="43.77891" lon="3.36927">
        <ele>516.45502973134</ele>
        <time>2017-10-29T13:12:40Z</time>
      </trkpt>
      <trkpt lat="43.7789" lon="3.36927">
        <ele>516.45502973134</ele>
        <time>2017-10-29T13:12:40Z</time>
      </trkpt>
      <trkpt lat="43.77885" lon="3.36925">
        <ele>516.45502973134</ele>
        <time>2017-10-29T13:12:44Z</time>
      </trkpt>
      <trkpt lat="43.77871" lon="3.36923">
        <ele>506.60172448753</ele>
        <time>2017-10-29T13:13:01Z</time>
      </trkpt>
      <trkpt lat="43.7787" lon="3.36923">
        <ele>506.60172448753</ele>
        <time>2017-10-29T13:13:01Z</time>
      </trkpt>
      <trkpt lat="43.77831" lon="3.36911">
        <ele>497.07034818008</ele>
        <time>2017-10-29T13:13:34Z</time>
      </trkpt>
      <trkpt lat="43.77821" lon="3.36908">
        <ele>488.33308891811</ele>
        <time>2017-10-29T13:13:53Z</time>
      </trkpt>
      <trkpt lat="43.7783" lon="3.3691">
        <ele>480.3921843521</ele>
        <time>2017-10-29T13:14:44Z</time>
      </trkpt>
      <trkpt lat="43.77832" lon="3.3691">
        <ele>480.3921843521</ele>
        <time>2017-10-29T13:14:49Z</time>
      </trkpt>
      <trkpt lat="43.77829" lon="3.3691">
        <ele>480.3921843521</ele>
        <time>2017-10-29T13:14:54Z</time>
      </trkpt>
      <trkpt lat="43.77825" lon="3.36909">
        <ele>480.3921843521</ele>
        <time>2017-10-29T13:14:59Z</time>
      </trkpt>
      <trkpt lat="43.7782" lon="3.36909">
        <ele>473.11707314886</ele>
        <time>2017-10-29T13:15:04Z</time>
      </trkpt>
      <trkpt lat="43.77816" lon="3.36908">
        <ele>473.11707314886</ele>
        <time>2017-10-29T13:15:09Z</time>
      </trkpt>
      <trkpt lat="43.77812" lon="3.3691">
        <ele>473.11707314886</ele>
        <time>2017-10-29T13:15:14Z</time>
      </trkpt>
      <trkpt lat="43.77807" lon="3.36912">
        <ele>466.62921522707</ele>
        <time>2017-10-29T13:15:19Z</time>
      </trkpt>
      <trkpt lat="43.77803" lon="3.36913">
        <ele>466.62921522707</ele>
        <time>2017-10-29T13:15:24Z</time>
      </trkpt>
      <trkpt lat="43.77799" lon="3.36913">
        <ele>466.62921522707</ele>
        <time>2017-10-29T13:15:29Z</time>
      </trkpt>
      <trkpt lat="43.77793" lon="3.36911">
        <ele>460.80768773647</ele>
        <time>2017-10-29T13:15:36Z</time>
      </trkpt>
      <trkpt lat="43.77792" lon="3.3691">
        <ele>460.80768773647</ele>
        <time>2017-10-29T13:15:39Z</time>
      </trkpt>
      <trkpt lat="43.77792" lon="3.3691">
        <ele>460.80768773647</ele>
        <time>2017-10-29T13:15:44Z</time>
      </trkpt>
      <trkpt lat="43.77799" lon="3.3691">
        <ele>460.80768773647</ele>
        <time>2017-10-29T13:15:59Z</time>
      </trkpt>
      <trkpt lat="43.77804" lon="3.36911">
        <ele>455.53793124365</ele>
        <time>2017-10-29T13:16:04Z</time>
      </trkpt>
      <trkpt lat="43.77809" lon="3.36911">
        <ele>455.53793124365</ele>
        <time>2017-10-29T13:16:09Z</time>
      </trkpt>
      <trkpt lat="43.77816" lon="3.3691">
        <ele>451.07191150464</ele>
        <time>2017-10-29T13:16:14Z</time>
      </trkpt>
      <trkpt lat="43.77822" lon="3.3691">
        <ele>451.07191150464</ele>
        <time>2017-10-29T13:16:19Z</time>
      </trkpt>
      <trkpt lat="43.77826" lon="3.36912">
        <ele>447.33761170124</ele>
        <time>2017-10-29T13:16:25Z</time>
      </trkpt>
      <trkpt lat="43.77829" lon="3.36914">
        <ele>447.33761170124</ele>
        <time>2017-10-29T13:16:29Z</time>
      </trkpt>
      <trkpt lat="43.77835" lon="3.36913">
        <ele>444.20806319376</ele>
        <time>2017-10-29T13:16:34Z</time>
      </trkpt>
      <trkpt lat="43.77842" lon="3.36915">
        <ele>444.20806319376</ele>
        <time>2017-10-29T13:16:39Z</time>
      </trkpt>
      <trkpt lat="43.77849" lon="3.36914">
        <ele>441.70753860193</ele>
        <time>2017-10-29T13:16:44Z</time>
      </trkpt>
      <trkpt lat="43.77853" lon="3.36918">
        <ele>441.70753860193</ele>
        <time>2017-10-29T13:16:49Z</time>
      </trkpt>
      <trkpt lat="43.77858" lon="3.3692">
        <ele>439.8851330727</ele>
        <time>2017-10-29T13:16:55Z</time>
      </trkpt>
      <trkpt lat="43.77864" lon="3.36923">
        <ele>439.8851330727</ele>
        <time>2017-10-29T13:16:59Z</time>
      </trkpt>
      <trkpt lat="43.7787" lon="3.36925">
        <ele>438.62550997724</ele>
        <time>2017-10-29T13:17:04Z</time>
      </trkpt>
      <trkpt lat="43.77875" lon="3.36926">
        <ele>438.62550997724</ele>
        <time>2017-10-29T13:17:09Z</time>
      </trkpt>
      <trkpt lat="43.77879" lon="3.36927">
        <ele>438.62550997724</ele>
        <time>2017-10-29T13:17:14Z</time>
      </trkpt>
      <trkpt lat="43.77882" lon="3.36929">
        <ele>437.92075769291</ele>
        <time>2017-10-29T13:17:19Z</time>
      </trkpt>
      <trkpt lat="43.77887" lon="3.36929">
        <ele>437.92075769291</ele>
        <time>2017-10-29T13:17:24Z</time>
      </trkpt>
      <trkpt lat="43.77893" lon="3.3693">
        <ele>437.6464093127</ele>
        <time>2017-10-29T13:17:29Z</time>
      </trkpt>
      <trkpt lat="43.77899" lon="3.36932">
        <ele>437.6464093127</ele>
        <time>2017-10-29T13:17:34Z</time>
      </trkpt>
      <trkpt lat="43.77903" lon="3.36934">
        <ele>437.91627798085</ele>
        <time>2017-10-29T13:17:39Z</time>
      </trkpt>
      <trkpt lat="43.77905" lon="3.36938">
        <ele>437.91627798085</ele>
        <time>2017-10-29T13:17:44Z</time>
      </trkpt>
      <trkpt lat="43.77913" lon="3.36942">
        <ele>438.76205801313</ele>
        <time>2017-10-29T13:17:51Z</time>
      </trkpt>
      <trkpt lat="43.77927" lon="3.36952">
        <ele>440.16814915241</ele>
        <time>2017-10-29T13:18:05Z</time>
      </trkpt>
      <trkpt lat="43.77928" lon="3.36952">
        <ele>440.16814915241</ele>
        <time>2017-10-29T13:18:09Z</time>
      </trkpt>
      <trkpt lat="43.77935" lon="3.36947">
        <ele>440.16814915241</ele>
        <time>2017-10-29T13:18:34Z</time>
      </trkpt>
      <trkpt lat="43.77938" lon="3.36948">
        <ele>441.9743553957</ele>
        <time>2017-10-29T13:18:39Z</time>
      </trkpt>
      <trkpt lat="43.77938" lon="3.36948">
        <ele>441.9743553957</ele>
        <time>2017-10-29T13:18:44Z</time>
      </trkpt>
      <trkpt lat="43.77936" lon="3.36945">
        <ele>441.9743553957</ele>
        <time>2017-10-29T13:18:49Z</time>
      </trkpt>
      <trkpt lat="43.7793" lon="3.36948">
        <ele>444.07435946417</ele>
        <time>2017-10-29T13:18:54Z</time>
      </trkpt>
      <trkpt lat="43.77925" lon="3.36949">
        <ele>444.07435946417</ele>
        <time>2017-10-29T13:18:59Z</time>
      </trkpt>
      <trkpt lat="43.77919" lon="3.3695">
        <ele>446.32565382771</ele>
        <time>2017-10-29T13:19:04Z</time>
      </trkpt>
      <trkpt lat="43.77915" lon="3.36946">
        <ele>446.32565382771</ele>
        <time>2017-10-29T13:19:09Z</time>
      </trkpt>
      <trkpt lat="43.77912" lon="3.36943">
        <ele>446.32565382771</ele>
        <time>2017-10-29T13:19:14Z</time>
      </trkpt>
      <trkpt lat="43.77906" lon="3.36942">
        <ele>448.58147650223</ele>
        <time>2017-10-29T13:19:19Z</time>
      </trkpt>
      <trkpt lat="43.77807" lon="3.36909">
        <ele>450.63394257766</ele>
        <time>2017-10-29T13:20:44Z</time>
      </trkpt>
      <trkpt lat="43.77802" lon="3.36906">
        <ele>450.63394257766</ele>
        <time>2017-10-29T13:20:49Z</time>
      </trkpt>
      <trkpt lat="43.77777" lon="3.36902">
        <ele>452.55062089566</ele>
        <time>2017-10-29T13:21:12Z</time>
      </trkpt>
      <trkpt lat="43.77761" lon="3.36894">
        <ele>454.45239689554</ele>
        <time>2017-10-29T13:21:29Z</time>
      </trkpt>
      <trkpt lat="43.7773" lon="3.36878">
        <ele>455.97604271558</ele>
        <time>2017-10-29T13:22:00Z</time>
      </trkpt>
      <trkpt lat="43.77722" lon="3.36874">
        <ele>455.97604271558</ele>
        <time>2017-10-29T13:22:00Z</time>
      </trkpt>
      <trkpt lat="43.77714" lon="3.36878">
        <ele>457.26196536009</ele>
        <time>2017-10-29T13:22:26Z</time>
      </trkpt>
      <trkpt lat="43.77718" lon="3.36887">
        <ele>457.26196536009</ele>
        <time>2017-10-29T13:22:26Z</time>
      </trkpt>
      <trkpt lat="43.77721" lon="3.36891">
        <ele>458.22510896388</ele>
        <time>2017-10-29T13:22:35Z</time>
      </trkpt>
      <trkpt lat="43.77736" lon="3.36906">
        <ele>459.09057818626</ele>
        <time>2017-10-29T13:22:59Z</time>
      </trkpt>
      <trkpt lat="43.77745" lon="3.36909">
        <ele>460.0387841161</ele>
        <time>2017-10-29T13:23:01Z</time>
      </trkpt>
      <trkpt lat="43.77776" lon="3.36927">
        <ele>460.77590121524</ele>
        <time>2017-10-29T13:23:31Z</time>
      </trkpt>
      <trkpt lat="43.7779" lon="3.36944">
        <ele>461.50626227928</ele>
        <time>2017-10-29T13:23:32Z</time>
      </trkpt>
      <trkpt lat="43.77817" lon="3.36951">
        <ele>462.23228718761</ele>
        <time>2017-10-29T13:24:00Z</time>
      </trkpt>
      <trkpt lat="43.77821" lon="3.36951">
        <ele>462.23228718761</ele>
        <time>2017-10-29T13:24:00Z</time>
      </trkpt>
      <trkpt lat="43.77879" lon="3.36991">
        <ele>462.56755802318</ele>
        <time>2017-10-29T13:24:49Z</time>
      </trkpt>
      <trkpt lat="43.77886" lon="3.36995">
        <ele>462.56755802318</ele>
        <time>2017-10-29T13:24:54Z</time>
      </trkpt>
      <trkpt lat="43.77898" lon="3.37006">
        <ele>462.81848122337</ele>
        <time>2017-10-29T13:25:09Z</time>
      </trkpt>
      <trkpt lat="43.77966" lon="3.3706">
        <ele>462.53465393801</ele>
        <time>2017-10-29T13:26:09Z</time>
      </trkpt>
      <trkpt lat="43.7801" lon="3.37117">
        <ele>462.29505305473</ele>
        <time>2017-10-29T13:26:59Z</time>
      </trkpt>
      <trkpt lat="43.78065" lon="3.37164">
        <ele>461.58440705041</ele>
        <time>2017-10-29T13:27:46Z</time>
      </trkpt>
      <trkpt lat="43.78088" lon="3.37186">
        <ele>460.60434854109</ele>
        <time>2017-10-29T13:28:09Z</time>
      </trkpt>
      <trkpt lat="43.78102" lon="3.372">
        <ele>459.49961646429</ele>
        <time>2017-10-29T13:28:26Z</time>
      </trkpt>
      <trkpt lat="43.7811" lon="3.3721">
        <ele>458.49151502352</ele>
        <time>2017-10-29T13:28:26Z</time>
      </trkpt>
      <trkpt lat="43.78144" lon="3.37244">
        <ele>457.28079641718</ele>
        <time>2017-10-29T13:28:54Z</time>
      </trkpt>
      <trkpt lat="43.78159" lon="3.37259">
        <ele>456.08109020144</ele>
        <time>2017-10-29T13:29:13Z</time>
      </trkpt>
      <trkpt lat="43.78176" lon="3.37274">
        <ele>454.8600555102</ele>
        <time>2017-10-29T13:29:34Z</time>
      </trkpt>
      <trkpt lat="43.78184" lon="3.37283">
        <ele>453.68897952041</ele>
        <time>2017-10-29T13:29:37Z</time>
      </trkpt>
      <trkpt lat="43.78242" lon="3.37328">
        <ele>451.78381329017</ele>
        <time>2017-10-29T13:30:46Z</time>
      </trkpt>
      <trkpt lat="43.78261" lon="3.37343">
        <ele>449.87596405228</ele>
        <time>2017-10-29T13:30:54Z</time>
      </trkpt>
      <trkpt lat="43.78283" lon="3.37358">
        <ele>447.76429822582</ele>
        <time>2017-10-29T13:31:20Z</time>
      </trkpt>
      <trkpt lat="43.78294" lon="3.37358">
        <ele>445.82530094422</ele>
        <time>2017-10-29T13:31:20Z</time>
      </trkpt>
      <trkpt lat="43.78305" lon="3.37358">
        <ele>444.07607876543</ele>
        <time>2017-10-29T13:31:30Z</time>
      </trkpt>
      <trkpt lat="43.78306" lon="3.37358">
        <ele>444.07607876543</ele>
        <time>2017-10-29T13:31:34Z</time>
      </trkpt>
      <trkpt lat="43.78303" lon="3.37357">
        <ele>444.07607876543</ele>
        <time>2017-10-29T13:31:49Z</time>
      </trkpt>
      <trkpt lat="43.78299" lon="3.37359">
        <ele>442.47450364192</ele>
        <time>2017-10-29T13:31:54Z</time>
      </trkpt>
      <trkpt lat="43.78295" lon="3.3736">
        <ele>442.47450364192</ele>
        <time>2017-10-29T13:31:59Z</time>
      </trkpt>
      <trkpt lat="43.78291" lon="3.37365">
        <ele>440.79396475151</ele>
        <time>2017-10-29T13:32:04Z</time>
      </trkpt>
      <trkpt lat="43.78283" lon="3.37371">
        <ele>440.79396475151</ele>
        <time>2017-10-29T13:32:13Z</time>
      </trkpt>
      <trkpt lat="43.78281" lon="3.37371">
        <ele>438.99781788928</ele>
        <time>2017-10-29T13:32:14Z</time>
      </trkpt>
      <trkpt lat="43.78279" lon="3.37372">
        <ele>438.99781788928</ele>
        <time>2017-10-29T13:32:19Z</time>
      </trkpt>
      <trkpt lat="43.78278" lon="3.37372">
        <ele>438.99781788928</ele>
        <time>2017-10-29T13:32:24Z</time>
      </trkpt>
      <trkpt lat="43.78274" lon="3.37374">
        <ele>438.99781788928</ele>
        <time>2017-10-29T13:32:29Z</time>
      </trkpt>
      <trkpt lat="43.78257" lon="3.37377">
        <ele>436.95170651524</ele>
        <time>2017-10-29T13:32:49Z</time>
      </trkpt>
      <trkpt lat="43.78254" lon="3.37377">
        <ele>436.95170651524</ele>
        <time>2017-10-29T13:32:58Z</time>
      </trkpt>
      <trkpt lat="43.7824" lon="3.37363">
        <ele>434.89225678787</ele>
        <time>2017-10-29T13:33:10Z</time>
      </trkpt>
      <trkpt lat="43.78235" lon="3.37362">
        <ele>434.89225678787</ele>
        <time>2017-10-29T13:33:14Z</time>
      </trkpt>
      <trkpt lat="43.78215" lon="3.37358">
        <ele>432.92357929664</ele>
        <time>2017-10-29T13:33:30Z</time>
      </trkpt>
      <trkpt lat="43.78204" lon="3.37357">
        <ele>431.09875217107</ele>
        <time>2017-10-29T13:33:41Z</time>
      </trkpt>
      <trkpt lat="43.78193" lon="3.37356">
        <ele>429.46664059008</ele>
        <time>2017-10-29T13:33:49Z</time>
      </trkpt>
      <trkpt lat="43.78175" lon="3.3735">
        <ele>427.98559048253</ele>
        <time>2017-10-29T13:34:06Z</time>
      </trkpt>
      <trkpt lat="43.78158" lon="3.37344">
        <ele>426.35725090216</ele>
        <time>2017-10-29T13:34:31Z</time>
      </trkpt>
      <trkpt lat="43.78161" lon="3.37351">
        <ele>426.35725090216</ele>
        <time>2017-10-29T13:34:50Z</time>
      </trkpt>
      <trkpt lat="43.78181" lon="3.3737">
        <ele>424.08949075953</ele>
        <time>2017-10-29T13:35:07Z</time>
      </trkpt>
      <trkpt lat="43.78237" lon="3.37434">
        <ele>421.47754824266</ele>
        <time>2017-10-29T13:36:12Z</time>
      </trkpt>
      <trkpt lat="43.78238" lon="3.37436">
        <ele>421.47754824266</ele>
        <time>2017-10-29T13:36:13Z</time>
      </trkpt>
      <trkpt lat="43.78239" lon="3.37436">
        <ele>421.47754824266</ele>
        <time>2017-10-29T13:36:14Z</time>
      </trkpt>
      <trkpt lat="43.78271" lon="3.37431">
        <ele>418.72391686948</ele>
        <time>2017-10-29T13:36:39Z</time>
      </trkpt>
      <trkpt lat="43.78311" lon="3.37497">
        <ele>415.54106447919</ele>
        <time>2017-10-29T13:37:45Z</time>
      </trkpt>
      <trkpt lat="43.78312" lon="3.37506">
        <ele>415.54106447919</ele>
        <time>2017-10-29T13:37:54Z</time>
      </trkpt>
      <trkpt lat="43.7833" lon="3.37538">
        <ele>412.51404385739</ele>
        <time>2017-10-29T13:38:18Z</time>
      </trkpt>
      <trkpt lat="43.78331" lon="3.3754">
        <ele>412.51404385739</ele>
        <time>2017-10-29T13:38:21Z</time>
      </trkpt>
      <trkpt lat="43.78328" lon="3.37541">
        <ele>412.51404385739</ele>
        <time>2017-10-29T13:38:32Z</time>
      </trkpt>
      <trkpt lat="43.78296" lon="3.37575">
        <ele>409.78096928007</ele>
        <time>2017-10-29T13:39:00Z</time>
      </trkpt>
      <trkpt lat="43.78383" lon="3.37635">
        <ele>405.33610931786</ele>
        <time>2017-10-29T13:40:46Z</time>
      </trkpt>
      <trkpt lat="43.78403" lon="3.37635">
        <ele>400.97183908481</ele>
        <time>2017-10-29T13:41:00Z</time>
      </trkpt>
      <trkpt lat="43.78419" lon="3.37693">
        <ele>396.21572780417</ele>
        <time>2017-10-29T13:41:33Z</time>
      </trkpt>
      <trkpt lat="43.78422" lon="3.37698">
        <ele>396.21572780417</ele>
        <time>2017-10-29T13:41:36Z</time>
      </trkpt>
      <trkpt lat="43.78437" lon="3.37701">
        <ele>391.66866011572</ele>
        <time>2017-10-29T13:42:05Z</time>
      </trkpt>
      <trkpt lat="43.78434" lon="3.37715">
        <ele>387.55522809247</ele>
        <time>2017-10-29T13:42:05Z</time>
      </trkpt>
      <trkpt lat="43.78507" lon="3.37808">
        <ele>383.39044659868</ele>
        <time>2017-10-29T13:43:30Z</time>
      </trkpt>
      <trkpt lat="43.78515" lon="3.37818">
        <ele>379.61844611657</ele>
        <time>2017-10-29T13:43:30Z</time>
      </trkpt>
      <trkpt lat="43.78523" lon="3.37835">
        <ele>376.2027288092</ele>
        <time>2017-10-29T13:43:43Z</time>
      </trkpt>
      <trkpt lat="43.78537" lon="3.37869">
        <ele>373.06508062782</ele>
        <time>2017-10-29T13:44:49Z</time>
      </trkpt>
      <trkpt lat="43.78525" lon="3.37871">
        <ele>370.29060615795</ele>
        <time>2017-10-29T13:45:11Z</time>
      </trkpt>
      <trkpt lat="43.7851" lon="3.37882">
        <ele>367.94255844187</ele>
        <time>2017-10-29T13:45:11Z</time>
      </trkpt>
      <trkpt lat="43.78505" lon="3.3789">
        <ele>367.94255844187</ele>
        <time>2017-10-29T13:45:28Z</time>
      </trkpt>
      <trkpt lat="43.78497" lon="3.37898">
        <ele>365.94848060531</ele>
        <time>2017-10-29T13:45:28Z</time>
      </trkpt>
      <trkpt lat="43.78483" lon="3.37898">
        <ele>364.32655123928</ele>
        <time>2017-10-29T13:45:56Z</time>
      </trkpt>
      <trkpt lat="43.78479" lon="3.37898">
        <ele>364.32655123928</ele>
        <time>2017-10-29T13:46:00Z</time>
      </trkpt>
      <trkpt lat="43.78471" lon="3.37903">
        <ele>363.02036242072</ele>
        <time>2017-10-29T13:46:14Z</time>
      </trkpt>
      <trkpt lat="43.78435" lon="3.37958">
        <ele>362.33690317187</ele>
        <time>2017-10-29T13:47:32Z</time>
      </trkpt>
      <trkpt lat="43.78434" lon="3.37993">
        <ele>361.89582926909</ele>
        <time>2017-10-29T13:47:32Z</time>
      </trkpt>
      <trkpt lat="43.78436" lon="3.38053">
        <ele>361.87716191804</ele>
        <time>2017-10-29T13:48:17Z</time>
      </trkpt>
      <trkpt lat="43.78434" lon="3.38053">
        <ele>361.87716191804</ele>
        <time>2017-10-29T13:48:17Z</time>
      </trkpt>
      <trkpt lat="43.78433" lon="3.3808">
        <ele>361.89880453926</ele>
        <time>2017-10-29T13:48:49Z</time>
      </trkpt>
      <trkpt lat="43.78413" lon="3.38118">
        <ele>361.92359519655</ele>
        <time>2017-10-29T13:49:29Z</time>
      </trkpt>
      <trkpt lat="43.78413" lon="3.38123">
        <ele>361.92359519655</ele>
        <time>2017-10-29T13:49:29Z</time>
      </trkpt>
      <trkpt lat="43.78395" lon="3.38171">
        <ele>362.04674837058</ele>
        <time>2017-10-29T13:50:03Z</time>
      </trkpt>
      <trkpt lat="43.78391" lon="3.38226">
        <ele>362.32736163454</ele>
        <time>2017-10-29T13:50:30Z</time>
      </trkpt>
      <trkpt lat="43.78392" lon="3.38237">
        <ele>362.32736163454</ele>
        <time>2017-10-29T13:50:38Z</time>
      </trkpt>
      <trkpt lat="43.78397" lon="3.38254">
        <ele>362.66122239153</ele>
        <time>2017-10-29T13:50:59Z</time>
      </trkpt>
      <trkpt lat="43.78403" lon="3.38264">
        <ele>362.49048113773</ele>
        <time>2017-10-29T13:53:01Z</time>
      </trkpt>
      <trkpt lat="43.78405" lon="3.38261">
        <ele>362.49048113773</ele>
        <time>2017-10-29T13:53:04Z</time>
      </trkpt>
      <trkpt lat="43.78409" lon="3.38259">
        <ele>362.49048113773</ele>
        <time>2017-10-29T13:53:09Z</time>
      </trkpt>
      <trkpt lat="43.78429" lon="3.38259">
        <ele>362.48142406698</ele>
        <time>2017-10-29T13:53:36Z</time>
      </trkpt>
      <trkpt lat="43.78437" lon="3.38266">
        <ele>362.66012725095</ele>
        <time>2017-10-29T13:53:36Z</time>
      </trkpt>
      <trkpt lat="43.78446" lon="3.38284">
        <ele>363.10792699416</ele>
        <time>2017-10-29T13:54:00Z</time>
      </trkpt>
      <trkpt lat="43.78446" lon="3.3829">
        <ele>363.10792699416</ele>
        <time>2017-10-29T13:54:19Z</time>
      </trkpt>
      <trkpt lat="43.78443" lon="3.38294">
        <ele>363.10792699416</ele>
        <time>2017-10-29T13:54:19Z</time>
      </trkpt>
      <trkpt lat="43.78446" lon="3.38311">
        <ele>363.84185679389</ele>
        <time>2017-10-29T13:54:51Z</time>
      </trkpt>
      <trkpt lat="43.78442" lon="3.38317">
        <ele>363.84185679389</ele>
        <time>2017-10-29T13:55:08Z</time>
      </trkpt>
      <trkpt lat="43.78458" lon="3.38317">
        <ele>365.23726047524</ele>
        <time>2017-10-29T13:55:39Z</time>
      </trkpt>
      <trkpt lat="43.7846" lon="3.38313">
        <ele>365.23726047524</ele>
        <time>2017-10-29T13:55:42Z</time>
      </trkpt>
      <trkpt lat="43.78444" lon="3.38323">
        <ele>366.96283390972</ele>
        <time>2017-10-29T13:56:20Z</time>
      </trkpt>
      <trkpt lat="43.78443" lon="3.38331">
        <ele>366.96283390972</ele>
        <time>2017-10-29T13:56:20Z</time>
      </trkpt>
      <trkpt lat="43.78438" lon="3.38371">
        <ele>368.84050467959</ele>
        <time>2017-10-29T13:56:49Z</time>
      </trkpt>
      <trkpt lat="43.78428" lon="3.38403">
        <ele>370.71940503303</ele>
        <time>2017-10-29T13:57:06Z</time>
      </trkpt>
      <trkpt lat="43.78425" lon="3.38406">
        <ele>370.71940503303</ele>
        <time>2017-10-29T13:57:09Z</time>
      </trkpt>
      <trkpt lat="43.78416" lon="3.38415">
        <ele>372.73371569115</ele>
        <time>2017-10-29T13:57:24Z</time>
      </trkpt>
      <trkpt lat="43.78419" lon="3.38423">
        <ele>372.73371569115</ele>
        <time>2017-10-29T13:57:24Z</time>
      </trkpt>
      <trkpt lat="43.78426" lon="3.38423">
        <ele>375.43989135682</ele>
        <time>2017-10-29T13:58:14Z</time>
      </trkpt>
      <trkpt lat="43.78429" lon="3.38435">
        <ele>378.08358637884</ele>
        <time>2017-10-29T13:58:31Z</time>
      </trkpt>
      <trkpt lat="43.78421" lon="3.38436">
        <ele>378.08358637884</ele>
        <time>2017-10-29T13:58:31Z</time>
      </trkpt>
      <trkpt lat="43.78382" lon="3.38518">
        <ele>381.98381637911</ele>
        <time>2017-10-29T13:59:47Z</time>
      </trkpt>
      <trkpt lat="43.78375" lon="3.38535">
        <ele>385.88070289034</ele>
        <time>2017-10-29T13:59:47Z</time>
      </trkpt>
      <trkpt lat="43.78368" lon="3.38545">
        <ele>389.60155276498</ele>
        <time>2017-10-29T13:59:55Z</time>
      </trkpt>
      <trkpt lat="43.78349" lon="3.38665">
        <ele>394.45706910083</ele>
        <time>2017-10-29T14:01:05Z</time>
      </trkpt>
      <trkpt lat="43.78348" lon="3.38676">
        <ele>394.45706910083</ele>
        <time>2017-10-29T14:01:09Z</time>
      </trkpt>
      <trkpt lat="43.7835" lon="3.38686">
        <ele>399.54036108474</ele>
        <time>2017-10-29T14:01:14Z</time>
      </trkpt>
      <trkpt lat="43.78351" lon="3.38689">
        <ele>399.54036108474</ele>
        <time>2017-10-29T14:01:19Z</time>
      </trkpt>
      <trkpt lat="43.78357" lon="3.38709">
        <ele>404.91874996969</ele>
        <time>2017-10-29T14:01:45Z</time>
      </trkpt>
      <trkpt lat="43.78491" lon="3.38804">
        <ele>410.65413972015</ele>
        <time>2017-10-29T14:03:55Z</time>
      </trkpt>
      <trkpt lat="43.78486" lon="3.38866">
        <ele>415.83772053062</ele>
        <time>2017-10-29T14:04:43Z</time>
      </trkpt>
      <trkpt lat="43.7848" lon="3.38886">
        <ele>420.59493721007</ele>
        <time>2017-10-29T14:04:59Z</time>
      </trkpt>
      <trkpt lat="43.78476" lon="3.38895">
        <ele>420.59493721007</ele>
        <time>2017-10-29T14:05:07Z</time>
      </trkpt>
      <trkpt lat="43.78475" lon="3.38961">
        <ele>425.04363396777</ele>
        <time>2017-10-29T14:05:52Z</time>
      </trkpt>
      <trkpt lat="43.78493" lon="3.39003">
        <ele>428.84754918347</ele>
        <time>2017-10-29T14:06:13Z</time>
      </trkpt>
      <trkpt lat="43.78494" lon="3.39005">
        <ele>428.84754918347</ele>
        <time>2017-10-29T14:06:16Z</time>
      </trkpt>
      <trkpt lat="43.78452" lon="3.39131">
        <ele>432.30263432798</ele>
        <time>2017-10-29T14:08:00Z</time>
      </trkpt>
      <trkpt lat="43.78439" lon="3.39216">
        <ele>435.74216026852</ele>
        <time>2017-10-29T14:09:06Z</time>
      </trkpt>
      <trkpt lat="43.78437" lon="3.39239">
        <ele>438.97100410157</ele>
        <time>2017-10-29T14:09:14Z</time>
      </trkpt>
      <trkpt lat="43.78439" lon="3.39249">
        <ele>438.97100410157</ele>
        <time>2017-10-29T14:09:19Z</time>
      </trkpt>
      <trkpt lat="43.78435" lon="3.39297">
        <ele>441.85262767049</ele>
        <time>2017-10-29T14:09:54Z</time>
      </trkpt>
      <trkpt lat="43.78438" lon="3.39302">
        <ele>441.85262767049</ele>
        <time>2017-10-29T14:09:55Z</time>
      </trkpt>
      <trkpt lat="43.78408" lon="3.39331">
        <ele>444.80953724178</ele>
        <time>2017-10-29T14:10:30Z</time>
      </trkpt>
      <trkpt lat="43.78371" lon="3.39367">
        <ele>447.75783139701</ele>
        <time>2017-10-29T14:11:08Z</time>
      </trkpt>
      <trkpt lat="43.78369" lon="3.39379">
        <ele>447.75783139701</ele>
        <time>2017-10-29T14:11:25Z</time>
      </trkpt>
      <trkpt lat="43.78368" lon="3.39391">
        <ele>450.43284690647</ele>
        <time>2017-10-29T14:11:38Z</time>
      </trkpt>
      <trkpt lat="43.78363" lon="3.3939">
        <ele>450.43284690647</ele>
        <time>2017-10-29T14:12:36Z</time>
      </trkpt>
      <trkpt lat="43.78324" lon="3.39322">
        <ele>452.99402222176</ele>
        <time>2017-10-29T14:13:01Z</time>
      </trkpt>
      <trkpt lat="43.78316" lon="3.39291">
        <ele>455.24390316807</ele>
        <time>2017-10-29T14:13:19Z</time>
      </trkpt>
      <trkpt lat="43.78313" lon="3.39265">
        <ele>457.04399744479</ele>
        <time>2017-10-29T14:13:38Z</time>
      </trkpt>
      <trkpt lat="43.78308" lon="3.39216">
        <ele>458.15229002787</ele>
        <time>2017-10-29T14:14:00Z</time>
      </trkpt>
      <trkpt lat="43.78303" lon="3.39173">
        <ele>458.85118245342</ele>
        <time>2017-10-29T14:14:33Z</time>
      </trkpt>
      <trkpt lat="43.78168" lon="3.39064">
        <ele>460.80164378057</ele>
        <time>2017-10-29T14:16:47Z</time>
      </trkpt>
      <trkpt lat="43.78169" lon="3.39062">
        <ele>460.80164378057</ele>
        <time>2017-10-29T14:16:49Z</time>
      </trkpt>
      <trkpt lat="43.78169" lon="3.39062">
        <ele>460.80164378057</ele>
        <time>2017-10-29T14:16:54Z</time>
      </trkpt>
      <trkpt lat="43.78174" lon="3.39059">
        <ele>460.80164378057</ele>
        <time>2017-10-29T14:17:14Z</time>
      </trkpt>
      <trkpt lat="43.78175" lon="3.39059">
        <ele>463.23360317664</ele>
        <time>2017-10-29T14:17:19Z</time>
      </trkpt>
      <trkpt lat="43.78207" lon="3.39047">
        <ele>465.21628427964</ele>
        <time>2017-10-29T14:17:59Z</time>
      </trkpt>
      <trkpt lat="43.78208" lon="3.39041">
        <ele>465.21628427964</ele>
        <time>2017-10-29T14:18:08Z</time>
      </trkpt>
      <trkpt lat="43.78179" lon="3.39023">
        <ele>466.83990403024</ele>
        <time>2017-10-29T14:18:58Z</time>
      </trkpt>
      <trkpt lat="43.78137" lon="3.39031">
        <ele>468.40543486509</ele>
        <time>2017-10-29T14:19:09Z</time>
      </trkpt>
      <trkpt lat="43.7813" lon="3.39033">
        <ele>468.40543486509</ele>
        <time>2017-10-29T14:19:09Z</time>
      </trkpt>
      <trkpt lat="43.78071" lon="3.39006">
        <ele>470.07680626794</ele>
        <time>2017-10-29T14:19:58Z</time>
      </trkpt>
      <trkpt lat="43.78062" lon="3.38995">
        <ele>471.45816088639</ele>
        <time>2017-10-29T14:19:58Z</time>
      </trkpt>
      <trkpt lat="43.78019" lon="3.38991">
        <ele>472.47191319845</ele>
        <time>2017-10-29T14:20:29Z</time>
      </trkpt>
      <trkpt lat="43.78017" lon="3.38996">
        <ele>472.47191319845</ele>
        <time>2017-10-29T14:20:29Z</time>
      </trkpt>
      <trkpt lat="43.77975" lon="3.3899">
        <ele>473.36439087298</ele>
        <time>2017-10-29T14:21:13Z</time>
      </trkpt>
      <trkpt lat="43.77973" lon="3.3899">
        <ele>473.36439087298</ele>
        <time>2017-10-29T14:21:14Z</time>
      </trkpt>
      <trkpt lat="43.77954" lon="3.38994">
        <ele>474.03282981167</ele>
        <time>2017-10-29T14:21:24Z</time>
      </trkpt>
      <trkpt lat="43.77907" lon="3.38964">
        <ele>474.19539701028</ele>
        <time>2017-10-29T14:22:03Z</time>
      </trkpt>
      <trkpt lat="43.77905" lon="3.38956">
        <ele>474.19539701028</ele>
        <time>2017-10-29T14:22:07Z</time>
      </trkpt>
      <trkpt lat="43.77794" lon="3.38818">
        <ele>471.50284185084</ele>
        <time>2017-10-29T14:24:07Z</time>
      </trkpt>
      <trkpt lat="43.7779" lon="3.38801">
        <ele>468.70073029688</ele>
        <time>2017-10-29T14:24:07Z</time>
      </trkpt>
      <trkpt lat="43.77792" lon="3.38769">
        <ele>465.43661922679</ele>
        <time>2017-10-29T14:24:33Z</time>
      </trkpt>
      <trkpt lat="43.77795" lon="3.38752">
        <ele>461.51491584391</ele>
        <time>2017-10-29T14:24:33Z</time>
      </trkpt>
      <trkpt lat="43.7777" lon="3.38742">
        <ele>456.52558010756</ele>
        <time>2017-10-29T14:24:58Z</time>
      </trkpt>
      <trkpt lat="43.77759" lon="3.38733">
        <ele>451.53267141281</ele>
        <time>2017-10-29T14:24:58Z</time>
      </trkpt>
      <trkpt lat="43.77722" lon="3.38723">
        <ele>446.28256244422</ele>
        <time>2017-10-29T14:25:24Z</time>
      </trkpt>
      <trkpt lat="43.77717" lon="3.38716">
        <ele>446.28256244422</ele>
        <time>2017-10-29T14:25:29Z</time>
      </trkpt>
      <trkpt lat="43.77628" lon="3.38694">
        <ele>440.54075611193</ele>
        <time>2017-10-29T14:26:28Z</time>
      </trkpt>
      <trkpt lat="43.77595" lon="3.38696">
        <ele>434.79723733453</ele>
        <time>2017-10-29T14:26:55Z</time>
      </trkpt>
      <trkpt lat="43.77595" lon="3.38698">
        <ele>434.79723733453</ele>
        <time>2017-10-29T14:26:56Z</time>
      </trkpt>
      <trkpt lat="43.77596" lon="3.3871">
        <ele>429.44804724316</ele>
        <time>2017-10-29T14:27:02Z</time>
      </trkpt>
      <trkpt lat="43.77598" lon="3.38714">
        <ele>429.44804724316</ele>
        <time>2017-10-29T14:27:04Z</time>
      </trkpt>
      <trkpt lat="43.77602" lon="3.38732">
        <ele>424.52722405462</ele>
        <time>2017-10-29T14:27:14Z</time>
      </trkpt>
      <trkpt lat="43.77603" lon="3.38739">
        <ele>424.52722405462</ele>
        <time>2017-10-29T14:27:19Z</time>
      </trkpt>
      <trkpt lat="43.77596" lon="3.38754">
        <ele>419.97825644327</ele>
        <time>2017-10-29T14:27:29Z</time>
      </trkpt>
      <trkpt lat="43.77592" lon="3.38763">
        <ele>419.97825644327</ele>
        <time>2017-10-29T14:27:34Z</time>
      </trkpt>
      <trkpt lat="43.77584" lon="3.3878">
        <ele>415.83380105145</ele>
        <time>2017-10-29T14:27:44Z</time>
      </trkpt>
      <trkpt lat="43.77584" lon="3.38788">
        <ele>415.83380105145</ele>
        <time>2017-10-29T14:27:49Z</time>
      </trkpt>
      <trkpt lat="43.77585" lon="3.38812">
        <ele>412.07932106456</ele>
        <time>2017-10-29T14:28:02Z</time>
      </trkpt>
      <trkpt lat="43.77586" lon="3.38814">
        <ele>412.07932106456</ele>
        <time>2017-10-29T14:28:08Z</time>
      </trkpt>
      <trkpt lat="43.77598" lon="3.38832">
        <ele>408.61334686807</ele>
        <time>2017-10-29T14:28:24Z</time>
      </trkpt>
      <trkpt lat="43.77605" lon="3.3884">
        <ele>405.44148305065</ele>
        <time>2017-10-29T14:28:24Z</time>
      </trkpt>
      <trkpt lat="43.77612" lon="3.38859">
        <ele>403.01439126674</ele>
        <time>2017-10-29T14:28:52Z</time>
      </trkpt>
      <trkpt lat="43.77624" lon="3.38874">
        <ele>400.89683407213</ele>
        <time>2017-10-29T14:28:55Z</time>
      </trkpt>
      <trkpt lat="43.77646" lon="3.38893">
        <ele>399.43361492509</ele>
        <time>2017-10-29T14:29:14Z</time>
      </trkpt>
      <trkpt lat="43.77731" lon="3.38961">
        <ele>399.04282280154</ele>
        <time>2017-10-29T14:30:41Z</time>
      </trkpt>
      <trkpt lat="43.77737" lon="3.38965">
        <ele>399.04282280154</ele>
        <time>2017-10-29T14:31:00Z</time>
      </trkpt>
      <trkpt lat="43.77785" lon="3.39007">
        <ele>399.48873960875</ele>
        <time>2017-10-29T14:31:33Z</time>
      </trkpt>
      <trkpt lat="43.77792" lon="3.39014">
        <ele>399.48873960875</ele>
        <time>2017-10-29T14:31:33Z</time>
      </trkpt>
      <trkpt lat="43.77807" lon="3.39025">
        <ele>400.37729952528</ele>
        <time>2017-10-29T14:31:46Z</time>
      </trkpt>
      <trkpt lat="43.77809" lon="3.39026">
        <ele>400.37729952528</ele>
        <time>2017-10-29T14:31:50Z</time>
      </trkpt>
      <trkpt lat="43.77812" lon="3.39028">
        <ele>400.37729952528</ele>
        <time>2017-10-29T14:31:54Z</time>
      </trkpt>
      <trkpt lat="43.77813" lon="3.39029">
        <ele>400.37729952528</ele>
        <time>2017-10-29T14:31:59Z</time>
      </trkpt>
      <trkpt lat="43.77818" lon="3.39035">
        <ele>402.37939209983</ele>
        <time>2017-10-29T14:32:14Z</time>
      </trkpt>
      <trkpt lat="43.77822" lon="3.39038">
        <ele>402.37939209983</ele>
        <time>2017-10-29T14:32:19Z</time>
      </trkpt>
      <trkpt lat="43.77827" lon="3.39041">
        <ele>404.57119553485</ele>
        <time>2017-10-29T14:32:24Z</time>
      </trkpt>
      <trkpt lat="43.77833" lon="3.3905">
        <ele>404.57119553485</ele>
        <time>2017-10-29T14:32:34Z</time>
      </trkpt>
      <trkpt lat="43.77837" lon="3.39052">
        <ele>407.0038440462</ele>
        <time>2017-10-29T14:32:39Z</time>
      </trkpt>
      <trkpt lat="43.7784" lon="3.39058">
        <ele>407.0038440462</ele>
        <time>2017-10-29T14:32:44Z</time>
      </trkpt>
      <trkpt lat="43.77844" lon="3.39062">
        <ele>409.63733876493</ele>
        <time>2017-10-29T14:32:49Z</time>
      </trkpt>
      <trkpt lat="43.77848" lon="3.39067">
        <ele>409.63733876493</ele>
        <time>2017-10-29T14:32:54Z</time>
      </trkpt>
      <trkpt lat="43.77854" lon="3.39072">
        <ele>412.27534027804</ele>
        <time>2017-10-29T14:32:59Z</time>
      </trkpt>
      <trkpt lat="43.77856" lon="3.39077">
        <ele>412.27534027804</ele>
        <time>2017-10-29T14:33:04Z</time>
      </trkpt>
      <trkpt lat="43.7786" lon="3.39082">
        <ele>414.82223284972</ele>
        <time>2017-10-29T14:33:09Z</time>
      </trkpt>
      <trkpt lat="43.77863" lon="3.39087">
        <ele>414.82223284972</ele>
        <time>2017-10-29T14:33:14Z</time>
      </trkpt>
      <trkpt lat="43.77869" lon="3.39101">
        <ele>417.50660946544</ele>
        <time>2017-10-29T14:33:24Z</time>
      </trkpt>
      <trkpt lat="43.77874" lon="3.39105">
        <ele>417.50660946544</ele>
        <time>2017-10-29T14:33:29Z</time>
      </trkpt>
      <trkpt lat="43.77876" lon="3.39111">
        <ele>420.09306080198</ele>
        <time>2017-10-29T14:33:34Z</time>
      </trkpt>
      <trkpt lat="43.77876" lon="3.39114">
        <ele>420.09306080198</ele>
        <time>2017-10-29T14:33:39Z</time>
      </trkpt>
      <trkpt lat="43.77881" lon="3.3913">
        <ele>422.79603238278</ele>
        <time>2017-10-29T14:33:49Z</time>
      </trkpt>
      <trkpt lat="43.7788" lon="3.39134">
        <ele>422.79603238278</ele>
        <time>2017-10-29T14:33:54Z</time>
      </trkpt>
      <trkpt lat="43.77877" lon="3.39139">
        <ele>422.79603238278</ele>
        <time>2017-10-29T14:33:59Z</time>
      </trkpt>
      <trkpt lat="43.77873" lon="3.39143">
        <ele>425.43918530166</ele>
        <time>2017-10-29T14:34:06Z</time>
      </trkpt>
      <trkpt lat="43.77836" lon="3.39168">
        <ele>428.13312678995</ele>
        <time>2017-10-29T14:34:51Z</time>
      </trkpt>
      <trkpt lat="43.77814" lon="3.39308">
        <ele>430.60554704699</ele>
        <time>2017-10-29T14:36:07Z</time>
      </trkpt>
      <trkpt lat="43.77803" lon="3.39473">
        <ele>433.36861471452</ele>
        <time>2017-10-29T14:37:27Z</time>
      </trkpt>
      <trkpt lat="43.77801" lon="3.39475">
        <ele>433.36861471452</ele>
        <time>2017-10-29T14:37:29Z</time>
      </trkpt>
      <trkpt lat="43.77778" lon="3.39508">
        <ele>436.43499076175</ele>
        <time>2017-10-29T14:38:00Z</time>
      </trkpt>
      <trkpt lat="43.77721" lon="3.39649">
        <ele>437.95662703826</ele>
        <time>2017-10-29T14:39:37Z</time>
      </trkpt>
      <trkpt lat="43.77721" lon="3.39664">
        <ele>438.96379842803</ele>
        <time>2017-10-29T14:39:37Z</time>
      </trkpt>
      <trkpt lat="43.77669" lon="3.39561">
        <ele>437.97718900584</ele>
        <time>2017-10-29T14:41:01Z</time>
      </trkpt>
      <trkpt lat="43.77667" lon="3.39558">
        <ele>437.97718900584</ele>
        <time>2017-10-29T14:41:08Z</time>
      </trkpt>
      <trkpt lat="43.77659" lon="3.3955">
        <ele>436.83114119561</ele>
        <time>2017-10-29T14:41:09Z</time>
      </trkpt>
      <trkpt lat="43.77643" lon="3.39515">
        <ele>434.96326781068</ele>
        <time>2017-10-29T14:41:34Z</time>
      </trkpt>
      <trkpt lat="43.77641" lon="3.39506">
        <ele>434.96326781068</ele>
        <time>2017-10-29T14:41:39Z</time>
      </trkpt>
      <trkpt lat="43.77588" lon="3.39445">
        <ele>432.14284296806</ele>
        <time>2017-10-29T14:42:39Z</time>
      </trkpt>
      <trkpt lat="43.77583" lon="3.39439">
        <ele>432.14284296806</ele>
        <time>2017-10-29T14:42:41Z</time>
      </trkpt>
      <trkpt lat="43.77572" lon="3.39437">
        <ele>428.77851887304</ele>
        <time>2017-10-29T14:42:50Z</time>
      </trkpt>
      <trkpt lat="43.7757" lon="3.39438">
        <ele>428.77851887304</ele>
        <time>2017-10-29T14:42:51Z</time>
      </trkpt>
      <trkpt lat="43.77577" lon="3.39464">
        <ele>424.45789462084</ele>
        <time>2017-10-29T14:43:16Z</time>
      </trkpt>
      <trkpt lat="43.77586" lon="3.3949">
        <ele>419.88240148864</ele>
        <time>2017-10-29T14:43:38Z</time>
      </trkpt>
      <trkpt lat="43.77588" lon="3.39552">
        <ele>415.41442460603</ele>
        <time>2017-10-29T14:44:28Z</time>
      </trkpt>
      <trkpt lat="43.77593" lon="3.39709">
        <ele>409.22771079982</ele>
        <time>2017-10-29T14:45:39Z</time>
      </trkpt>
      <trkpt lat="43.77561" lon="3.39823">
        <ele>403.16562166617</ele>
        <time>2017-10-29T14:47:00Z</time>
      </trkpt>
      <trkpt lat="43.77563" lon="3.39848">
        <ele>397.43687785611</ele>
        <time>2017-10-29T14:47:17Z</time>
      </trkpt>
      <trkpt lat="43.77562" lon="3.39859">
        <ele>397.43687785611</ele>
        <time>2017-10-29T14:47:17Z</time>
      </trkpt>
      <trkpt lat="43.7756" lon="3.39871">
        <ele>392.19054047308</ele>
        <time>2017-10-29T14:47:33Z</time>
      </trkpt>
      <trkpt lat="43.77551" lon="3.39885">
        <ele>387.53435442947</ele>
        <time>2017-10-29T14:47:35Z</time>
      </trkpt>
      <trkpt lat="43.77547" lon="3.40005">
        <ele>383.42216675815</ele>
        <time>2017-10-29T14:48:49Z</time>
      </trkpt>
      <trkpt lat="43.77539" lon="3.40015">
        <ele>379.57887550057</ele>
        <time>2017-10-29T14:48:59Z</time>
      </trkpt>
      <trkpt lat="43.77538" lon="3.40013">
        <ele>379.57887550057</ele>
        <time>2017-10-29T14:49:04Z</time>
      </trkpt>
      <trkpt lat="43.77531" lon="3.40016">
        <ele>379.57887550057</ele>
        <time>2017-10-29T14:49:19Z</time>
      </trkpt>
    </trkseg>
  </trk>
</gpx>